createdAt,value
2018-01-07T00:00:05.587Z,82.24
2018-01-07T00:01:58.993Z,82.24
2018-01-07T00:02:59.181Z,82.33
2018-01-07T00:04:51.816Z,82.14
2018-01-07T00:05:52.731Z,82.05
2018-01-07T00:07:46.201Z,82.52
2018-01-07T00:08:46.254Z,82.05
2018-01-07T00:10:38.886Z,82.62
2018-01-07T00:11:39.813Z,82.14
2018-01-07T00:13:33.291Z,82.43
2018-01-07T00:14:33.396Z,82.33
2018-01-07T00:16:27.501Z,82.52
2018-01-07T00:17:26.910Z,82.05
2018-01-07T00:19:23.804Z,82.52
2018-01-07T00:20:20.468Z,82.62
2018-01-07T00:22:13.124Z,81.86
2018-01-07T00:23:14.018Z,82.05
2018-01-07T00:25:07.579Z,81.95
2018-01-07T00:26:07.731Z,81.95
2018-01-07T00:28:00.125Z,82.05
2018-01-07T00:29:01.144Z,82.05
2018-01-07T00:30:54.692Z,81.86
2018-01-07T00:31:54.768Z,82.05
2018-01-07T00:33:47.657Z,82.14
2018-01-07T00:34:48.400Z,81.95
2018-01-07T00:36:41.792Z,81.95
2018-01-07T00:37:41.808Z,82.24
2018-01-07T00:39:34.408Z,81.48
2018-01-07T00:40:35.409Z,82.33
2018-01-07T00:42:28.892Z,81.48
2018-01-07T00:43:28.908Z,81.67
2018-01-07T00:45:23.076Z,81.57
2018-01-07T00:46:22.490Z,81.57
2018-01-07T00:48:16.625Z,81.67
2018-01-07T00:49:16.036Z,81.20
2018-01-07T00:51:09.574Z,81.10
2018-01-07T00:52:09.584Z,81.20
2018-01-07T00:54:01.074Z,80.91
2018-01-07T00:55:03.126Z,80.63
2018-01-07T00:56:56.729Z,80.63
2018-01-07T00:57:56.730Z,80.63
2018-01-07T00:59:49.245Z,80.34
2018-01-07T01:00:50.283Z,80.25
2018-01-07T01:02:43.711Z,80.06
2018-01-07T01:03:43.811Z,80.34
2018-01-07T01:05:35.072Z,80.44
2018-01-07T01:06:37.381Z,80.25
2018-01-07T01:08:30.910Z,80.44
2018-01-07T01:09:30.912Z,80.34
2018-01-07T01:11:23.608Z,80.34
2018-01-07T01:12:24.520Z,80.34
2018-01-07T01:14:17.917Z,80.44
2018-01-07T01:15:18.054Z,80.15
2018-01-07T01:17:10.780Z,79.77
2018-01-07T01:18:11.585Z,79.39
2018-01-07T01:20:05.141Z,79.21
2018-01-07T01:21:05.200Z,79.39
2018-01-07T01:22:57.566Z,79.49
2018-01-07T01:23:58.010Z,79.11
2018-01-07T01:25:52.238Z,79.21
2018-01-07T01:26:52.283Z,78.73
2018-01-07T01:28:42.999Z,79.02
2018-01-07T01:29:45.799Z,78.54
2018-01-07T01:31:38.486Z,78.73
2018-01-07T01:32:39.368Z,79.02
2018-01-07T01:34:32.938Z,78.92
2018-01-07T01:35:32.931Z,78.35
2018-01-07T01:37:25.416Z,78.73
2018-01-07T01:38:26.498Z,79.02
2018-01-07T01:40:20.042Z,78.83
2018-01-07T01:41:20.150Z,78.64
2018-01-07T01:43:12.739Z,78.64
2018-01-07T01:44:12.655Z,78.83
2018-01-07T01:46:04.278Z,78.73
2018-01-07T01:47:08.101Z,78.73
2018-01-07T01:48:59.622Z,78.54
2018-01-07T01:50:00.606Z,78.83
2018-01-07T01:51:54.264Z,78.73
2018-01-07T01:52:55.211Z,78.64
2018-01-07T01:54:46.893Z,78.64
2018-01-07T01:55:47.834Z,78.73
2018-01-07T01:57:41.276Z,78.73
2018-01-07T01:58:41.395Z,78.73
2018-01-07T02:00:34.078Z,78.92
2018-01-07T02:01:35.100Z,78.73
2018-01-07T02:03:27.672Z,78.83
2018-01-07T02:04:28.490Z,78.73
2018-01-07T02:06:21.883Z,78.64
2018-01-07T02:07:22.040Z,78.45
2018-01-07T02:09:16.183Z,78.83
2018-01-07T02:10:15.592Z,78.73
2018-01-07T02:12:09.104Z,78.64
2018-01-07T02:13:09.190Z,78.83
2018-01-07T02:15:01.892Z,78.92
2018-01-07T02:16:01.633Z,78.83
2018-01-07T02:17:56.100Z,78.64
2018-01-07T02:18:56.305Z,78.92
2018-01-07T02:20:48.937Z,78.26
2018-01-07T02:21:49.832Z,77.88
2018-01-07T02:23:44.314Z,78.26
2018-01-07T02:24:43.371Z,78.45
2018-01-07T02:26:36.071Z,78.26
2018-01-07T02:27:36.940Z,77.88
2018-01-07T02:29:28.677Z,78.35
2018-01-07T02:30:30.484Z,78.45
2018-01-07T02:32:23.216Z,78.35
2018-01-07T02:33:21.374Z,78.35
2018-01-07T02:35:17.607Z,78.07
2018-01-07T02:36:17.592Z,78.26
2018-01-07T02:38:11.096Z,78.16
2018-01-07T02:39:11.164Z,78.07
2018-01-07T02:41:04.746Z,78.35
2018-01-07T02:42:04.708Z,78.45
2018-01-07T02:43:57.256Z,78.26
2018-01-07T02:44:58.269Z,78.16
2018-01-07T02:46:51.147Z,78.64
2018-01-07T02:47:51.816Z,78.35
2018-01-07T02:49:44.308Z,78.16
2018-01-07T02:50:43.394Z,78.35
2018-01-07T02:52:38.958Z,77.97
2018-01-07T02:53:38.970Z,78.26
2018-01-07T02:55:31.484Z,78.07
2018-01-07T02:56:32.630Z,78.64
2018-01-07T02:58:26.065Z,78.64
2018-01-07T02:59:26.083Z,78.07
2018-01-07T03:01:18.747Z,77.88
2018-01-07T03:02:19.595Z,78.54
2018-01-07T03:04:12.274Z,78.45
2018-01-07T03:05:13.196Z,78.92
2018-01-07T03:07:07.647Z,78.26
2018-01-07T03:08:06.852Z,78.07
2018-01-07T03:10:00.855Z,78.35
2018-01-07T03:10:59.288Z,79.11
2018-01-07T03:12:51.406Z,78.92
2018-01-07T03:13:52.915Z,79.11
2018-01-07T03:15:44.548Z,78.83
2018-01-07T03:16:47.375Z,78.73
2018-01-07T03:18:40.952Z,78.45
2018-01-07T03:19:40.934Z,79.39
2018-01-07T03:21:33.567Z,78.73
2018-01-07T03:22:34.488Z,79.02
2018-01-07T03:24:27.297Z,78.92
2018-01-07T03:25:28.044Z,79.11
2018-01-07T03:27:20.566Z,78.92
2018-01-07T03:28:21.747Z,79.58
2018-01-07T03:30:14.246Z,78.83
2018-01-07T03:31:15.145Z,78.83
2018-01-07T03:33:08.697Z,79.02
2018-01-07T03:34:08.721Z,79.21
2018-01-07T03:36:01.244Z,78.92
2018-01-07T03:37:02.249Z,78.83
2018-01-07T03:38:55.825Z,79.02
2018-01-07T03:39:55.817Z,78.64
2018-01-07T03:41:48.501Z,78.73
2018-01-07T03:42:49.381Z,78.73
2018-01-07T03:44:42.335Z,78.45
2018-01-07T03:45:42.965Z,78.73
2018-01-07T03:47:37.108Z,78.83
2018-01-07T03:48:36.838Z,79.49
2018-01-07T03:50:29.410Z,78.73
2018-01-07T03:51:30.060Z,79.11
2018-01-07T03:53:23.635Z,78.73
2018-01-07T03:54:23.606Z,78.83
2018-01-07T03:56:16.316Z,79.49
2018-01-07T03:57:17.223Z,79.21
2018-01-07T03:59:09.838Z,79.02
2018-01-07T04:00:10.724Z,78.92
2018-01-07T04:02:04.320Z,78.73
2018-01-07T04:03:04.268Z,78.64
2018-01-07T04:04:56.952Z,79.21
2018-01-07T04:05:57.833Z,79.02
2018-01-07T04:07:51.211Z,78.83
2018-01-07T04:08:51.375Z,78.73
2018-01-07T04:10:44.102Z,78.83
2018-01-07T04:11:44.947Z,79.11
2018-01-07T04:13:38.440Z,78.45
2018-01-07T04:14:38.499Z,78.92
2018-01-07T04:16:31.008Z,78.92
2018-01-07T04:17:32.053Z,78.92
2018-01-07T04:19:23.624Z,78.83
2018-01-07T04:20:25.696Z,79.11
2018-01-07T04:22:18.335Z,79.58
2018-01-07T04:23:19.198Z,78.64
2018-01-07T04:25:10.661Z,79.58
2018-01-07T04:26:11.792Z,79.68
2018-01-07T04:28:06.882Z,79.68
2018-01-07T04:29:07.203Z,79.58
2018-01-07T04:30:58.960Z,79.68
2018-01-07T04:31:59.863Z,80.15
2018-01-07T04:33:52.542Z,80.06
2018-01-07T04:34:53.425Z,80.15
2018-01-07T04:36:47.586Z,79.87
2018-01-07T04:37:46.941Z,79.68
2018-01-07T04:39:39.585Z,81.01
2018-01-07T04:40:40.520Z,80.53
2018-01-07T04:42:33.463Z,79.87
2018-01-07T04:43:34.099Z,79.96
2018-01-07T04:45:27.696Z,80.34
2018-01-07T04:46:26.828Z,80.15
2018-01-07T04:48:20.320Z,79.68
2018-01-07T04:49:21.157Z,80.34
2018-01-07T04:51:13.848Z,80.06
2018-01-07T04:52:14.754Z,79.96
2018-01-07T04:54:07.426Z,80.15
2018-01-07T04:55:08.274Z,80.06
2018-01-07T04:57:01.818Z,80.25
2018-01-07T04:58:01.832Z,81.10
2018-01-07T04:59:52.550Z,80.82
2018-01-07T05:00:55.394Z,80.91
2018-01-07T05:02:49.093Z,81.48
2018-01-07T05:03:47.937Z,81.20
2018-01-07T05:05:41.818Z,81.10
2018-01-07T05:06:42.526Z,81.10
2018-01-07T05:08:36.060Z,80.63
2018-01-07T05:09:36.103Z,80.91
2018-01-07T05:11:28.659Z,80.91
2018-01-07T05:13:43.958Z,81.10
2018-01-07T05:14:43.021Z,81.20
2018-01-07T05:16:35.735Z,80.15
2018-01-07T05:17:36.574Z,81.10
2018-01-07T05:19:30.121Z,81.10
2018-01-07T05:20:30.135Z,81.10
2018-01-07T05:22:22.821Z,80.53
2018-01-07T05:23:23.725Z,81.20
2018-01-07T05:25:16.042Z,81.67
2018-01-07T05:26:17.285Z,81.20
2018-01-07T05:28:09.948Z,81.67
2018-01-07T05:29:10.852Z,82.05
2018-01-07T05:31:03.289Z,81.29
2018-01-07T05:32:03.470Z,81.67
2018-01-07T05:33:57.071Z,81.38
2018-01-07T05:34:57.895Z,80.82
2018-01-07T05:36:51.511Z,81.57
2018-01-07T05:37:51.536Z,80.72
2018-01-07T05:39:42.706Z,81.48
2018-01-07T05:40:45.021Z,81.86
2018-01-07T05:42:38.468Z,81.48
2018-01-07T05:43:38.565Z,81.48
2018-01-07T05:45:31.290Z,81.57
2018-01-07T05:46:32.163Z,82.14
2018-01-07T05:48:25.692Z,81.29
2018-01-07T05:49:25.747Z,81.48
2018-01-07T05:51:18.217Z,81.67
2018-01-07T05:52:19.299Z,81.86
2018-01-07T05:54:12.809Z,82.14
2018-01-07T05:55:12.868Z,82.14
2018-01-07T05:57:05.512Z,82.05
2018-01-07T05:58:06.425Z,82.14
2018-01-07T05:59:57.033Z,82.33
2018-01-07T06:00:59.905Z,82.05
2018-01-07T06:02:52.507Z,82.24
2018-01-07T06:03:53.462Z,81.86
2018-01-07T06:05:47.090Z,82.24
2018-01-07T06:06:47.012Z,82.14
2018-01-07T06:08:39.628Z,82.24
2018-01-07T06:09:40.610Z,82.33
2018-01-07T06:11:34.191Z,82.43
2018-01-07T06:12:34.167Z,83.09
2018-01-07T06:31:18.253Z,83.94
2018-01-07T06:32:19.078Z,83.56
2018-01-07T06:34:12.629Z,83.66
2018-01-07T06:35:12.630Z,83.94
2018-01-07T06:37:04.998Z,84.04
2018-01-07T06:38:06.220Z,84.13
2018-01-07T06:39:58.844Z,83.85
2018-01-07T06:40:59.830Z,84.13
2018-01-07T06:42:52.288Z,84.13
2018-01-07T06:43:54.256Z,84.13
2018-01-07T06:45:45.791Z,83.85
2018-01-07T06:46:46.880Z,83.94
2018-01-07T06:48:40.487Z,84.61
2018-01-07T06:49:40.423Z,83.75
2018-01-07T06:51:33.083Z,83.94
2018-01-07T06:52:33.982Z,84.04
2018-01-07T06:54:26.464Z,84.32
2018-01-07T06:55:27.519Z,84.32
2018-01-07T06:57:21.115Z,83.56
2018-01-07T06:58:21.113Z,84.51
2018-01-07T07:00:11.813Z,84.42
2018-01-07T07:01:13.776Z,84.61
2018-01-07T07:03:08.242Z,84.13
2018-01-07T07:04:08.201Z,83.94
2018-01-07T07:06:00.860Z,84.51
2018-01-07T07:07:01.746Z,84.61
2018-01-07T07:08:54.453Z,84.42
2018-01-07T07:09:55.322Z,84.61
2018-01-07T07:11:48.842Z,84.23
2018-01-07T07:12:48.893Z,84.13
2018-01-07T07:14:41.563Z,84.51
2018-01-07T07:15:42.442Z,83.94
2018-01-07T07:17:35.854Z,84.42
2018-01-07T07:18:35.999Z,84.51
2018-01-07T07:20:28.225Z,84.70
2018-01-07T07:21:29.557Z,84.32
2018-01-07T07:23:22.057Z,84.19
2018-01-07T07:24:23.073Z,84.47
2018-01-07T07:26:15.781Z,83.90
2018-01-07T07:27:16.723Z,84.47
2018-01-07T07:29:10.184Z,84.28
2018-01-07T07:30:09.590Z,84.56
2018-01-07T07:32:02.763Z,84.66
2018-01-07T07:33:03.742Z,84.38
2018-01-07T07:34:56.640Z,84.00
2018-01-07T07:35:57.306Z,85.04
2018-01-07T07:37:47.980Z,84.28
2018-01-07T07:38:50.853Z,85.23
2018-01-07T07:40:43.476Z,84.38
2018-01-07T07:41:44.425Z,84.38
2018-01-07T07:43:37.968Z,85.04
2018-01-07T07:44:37.978Z,84.38
2018-01-07T07:46:30.707Z,84.38
2018-01-07T07:47:31.516Z,84.66
2018-01-07T07:49:25.125Z,84.09
2018-01-07T07:50:25.080Z,84.38
2018-01-07T07:52:17.745Z,84.19
2018-01-07T07:53:18.628Z,84.56
2018-01-07T07:55:12.223Z,84.19
2018-01-07T07:56:12.186Z,84.85
2018-01-07T07:58:04.850Z,84.47
2018-01-07T07:59:05.788Z,84.38
2018-01-07T08:00:59.303Z,84.19
2018-01-07T08:01:59.328Z,84.47
2018-01-07T08:03:51.754Z,85.32
2018-01-07T08:04:52.904Z,84.75
2018-01-07T08:06:46.453Z,84.94
2018-01-07T08:07:47.797Z,85.04
2018-01-07T08:09:38.987Z,85.13
2018-01-07T08:10:39.970Z,84.94
2018-01-07T08:12:32.641Z,84.94
2018-01-07T08:13:33.570Z,85.04
2018-01-07T08:15:27.120Z,84.94
2018-01-07T08:16:28.033Z,84.85
2018-01-07T08:18:18.242Z,85.23
2018-01-07T08:19:20.643Z,85.13
2018-01-07T08:21:15.088Z,85.00
2018-01-07T08:22:14.225Z,84.94
2018-01-07T08:24:06.884Z,84.90
2018-01-07T08:26:18.270Z,84.42
2018-01-07T08:27:21.192Z,85.09
2018-01-07T08:29:11.939Z,84.90
2018-01-07T08:30:14.777Z,84.61
2018-01-07T08:32:07.333Z,85.00
2018-01-07T08:33:08.265Z,84.42
2018-01-07T08:34:58.942Z,84.90
2018-01-07T08:36:00.075Z,84.94
2018-01-07T08:37:53.944Z,85.00
2018-01-07T08:38:55.392Z,84.23
2018-01-07T08:40:46.091Z,84.38
2018-01-07T08:41:48.946Z,84.90
2018-01-07T08:43:41.386Z,84.61
2018-01-07T08:44:42.525Z,84.28
2018-01-07T08:46:34.581Z,85.28
2018-01-07T08:47:36.041Z,85.00
2018-01-07T08:49:28.715Z,84.47
2018-01-07T08:50:29.681Z,85.04
2018-01-07T08:52:23.262Z,85.00
2018-01-07T08:53:23.151Z,85.13
2018-01-07T08:55:15.705Z,84.90
2018-01-07T08:56:16.767Z,84.81
2018-01-07T08:58:10.278Z,84.94
2018-01-07T08:59:10.308Z,84.75
2018-01-07T09:01:02.962Z,85.23
2018-01-07T09:02:03.116Z,84.56
2018-01-07T09:03:57.420Z,84.47
2018-01-07T09:04:57.419Z,84.38
2018-01-07T09:06:49.888Z,84.66
2018-01-07T09:07:50.937Z,84.38
2018-01-07T09:09:44.501Z,84.33
2018-01-07T09:10:44.482Z,84.38
2018-01-07T09:12:37.000Z,84.56
2018-01-07T09:13:38.040Z,84.94
2018-01-07T09:15:30.770Z,84.75
2018-01-07T09:16:31.636Z,84.38
2018-01-07T09:18:25.186Z,84.38
2018-01-07T09:19:25.192Z,84.38
2018-01-07T09:21:17.635Z,84.56
2018-01-07T09:22:18.707Z,85.13
2018-01-07T09:24:12.204Z,85.04
2018-01-07T09:25:12.324Z,84.56
2018-01-07T09:27:03.599Z,84.47
2018-01-07T09:28:05.824Z,84.28
2018-01-07T09:29:59.413Z,84.38
2018-01-07T09:30:59.423Z,84.66
2018-01-07T09:32:52.029Z,84.66
2018-01-07T09:33:52.982Z,84.38
2018-01-07T09:35:46.519Z,85.04
2018-01-07T09:36:46.485Z,84.66
2018-01-07T09:38:39.191Z,84.75
2018-01-07T09:39:40.070Z,84.38
2018-01-07T09:41:33.761Z,84.38
2018-01-07T09:42:33.597Z,84.28
2018-01-07T09:44:24.979Z,84.56
2018-01-07T09:45:27.249Z,84.56
2018-01-07T09:47:20.668Z,84.56
2018-01-07T09:48:20.885Z,83.81
2018-01-07T09:50:13.439Z,85.04
2018-01-07T09:51:14.333Z,84.38
2018-01-07T09:53:08.434Z,84.47
2018-01-07T09:54:07.852Z,84.19
2018-01-07T09:56:01.412Z,84.09
2018-01-07T09:57:01.424Z,84.19
2018-01-07T09:58:54.059Z,84.75
2018-01-07T09:59:54.957Z,84.00
2018-01-07T10:01:47.819Z,84.47
2018-01-07T10:02:48.593Z,83.81
2018-01-07T10:04:41.474Z,84.75
2018-01-07T10:05:42.089Z,84.09
2018-01-07T10:07:32.922Z,84.66
2018-01-07T10:08:35.604Z,84.56
2018-01-07T10:10:28.235Z,84.19
2018-01-07T10:11:29.211Z,84.85
2018-01-07T10:13:22.605Z,84.66
2018-01-07T10:14:22.732Z,84.09
2018-01-07T10:16:15.292Z,84.38
2018-01-07T10:17:16.313Z,84.28
2018-01-07T10:19:11.803Z,84.47
2018-01-07T10:20:09.983Z,84.38
2018-01-07T10:22:03.405Z,84.00
2018-01-07T10:23:03.413Z,84.19
2018-01-07T10:24:56.036Z,84.38
2018-01-07T10:25:56.959Z,84.56
2018-01-07T10:27:50.511Z,84.28
2018-01-07T10:28:50.696Z,84.38
2018-01-07T10:30:41.241Z,84.00
2018-01-07T10:31:44.082Z,84.47
2018-01-07T10:33:37.476Z,84.28
2018-01-07T10:34:37.656Z,84.09
2018-01-07T10:36:29.148Z,83.81
2018-01-07T10:37:31.213Z,84.28
2018-01-07T10:39:22.345Z,84.66
2018-01-07T10:40:23.047Z,84.00
2018-01-07T10:42:15.509Z,84.09
2018-01-07T10:43:18.284Z,84.38
2018-01-07T10:45:11.861Z,84.38
2018-01-07T10:46:11.844Z,84.09
2018-01-07T10:48:04.453Z,84.38
2018-01-07T10:49:05.409Z,84.28
2018-01-07T10:50:58.114Z,84.38
2018-01-07T10:51:58.961Z,84.61
2018-01-07T10:53:49.695Z,83.90
2018-01-07T10:54:52.510Z,83.75
2018-01-07T10:56:46.661Z,84.23
2018-01-07T10:57:46.127Z,83.56
2018-01-07T10:59:39.784Z,83.56
2018-01-07T11:00:39.624Z,83.66
2018-01-07T11:02:32.181Z,83.66
2018-01-07T11:03:33.204Z,84.04
2018-01-07T11:05:25.927Z,83.37
2018-01-07T11:06:25.128Z,83.09
2018-01-07T11:08:20.288Z,83.09
2018-01-07T11:09:20.307Z,83.28
2018-01-07T11:11:12.937Z,83.09
2018-01-07T11:12:13.841Z,83.28
2018-01-07T11:14:07.296Z,83.37
2018-01-07T11:15:07.495Z,83.09
2018-01-07T11:17:00.052Z,83.47
2018-01-07T11:18:00.962Z,83.66
2018-01-07T11:19:54.544Z,83.28
2018-01-07T11:20:54.526Z,83.18
2018-01-07T11:22:47.205Z,83.09
2018-01-07T11:23:47.458Z,83.18
2018-01-07T11:25:41.642Z,82.62
2018-01-07T11:26:41.643Z,82.05
2018-01-07T11:28:34.324Z,82.33
2018-01-07T11:29:35.231Z,83.00
2018-01-07T11:31:26.653Z,83.00
2018-01-07T11:32:28.761Z,82.71
2018-01-07T11:34:21.451Z,82.52
2018-01-07T11:35:22.355Z,82.52
2018-01-07T11:37:15.884Z,82.52
2018-01-07T11:38:15.131Z,82.62
2018-01-07T11:40:08.585Z,82.90
2018-01-07T11:41:06.768Z,83.37
2018-01-07T11:43:03.101Z,82.43
2018-01-07T11:44:03.004Z,83.09
2018-01-07T11:45:55.671Z,82.90
2018-01-07T11:46:55.701Z,83.28
2018-01-07T11:48:50.096Z,82.90
2018-01-07T11:49:50.093Z,82.81
2018-01-07T11:51:42.620Z,82.62
2018-01-07T11:52:43.656Z,82.05
2018-01-07T11:54:36.338Z,83.28
2018-01-07T11:55:37.234Z,82.71
2018-01-07T11:57:30.923Z,83.28
2018-01-07T11:58:28.887Z,82.71
2018-01-07T12:00:23.334Z,82.71
2018-01-07T12:01:22.876Z,83.09
2018-01-07T12:03:20.110Z,83.18
2018-01-07T12:04:17.872Z,82.33
2018-01-07T12:06:12.068Z,83.28
2018-01-07T12:07:11.442Z,82.62
2018-01-07T12:09:04.882Z,82.90
2018-01-07T12:10:04.986Z,83.28
2018-01-07T12:11:57.748Z,83.28
2018-01-07T12:12:58.582Z,83.28
2018-01-07T12:14:52.105Z,83.00
2018-01-07T12:15:52.108Z,83.18
2018-01-07T12:17:44.772Z,83.75
2018-01-07T12:18:45.698Z,83.75
2018-01-07T12:20:39.369Z,82.52
2018-01-07T12:21:39.352Z,82.52
2018-01-07T12:23:30.644Z,82.81
2018-01-07T12:24:32.911Z,83.09
2018-01-07T12:26:26.335Z,83.09
2018-01-07T12:27:26.381Z,83.37
2018-01-07T12:29:18.823Z,83.37
2018-01-07T12:30:18.971Z,83.00
2018-01-07T12:32:11.540Z,83.18
2018-01-07T12:33:13.459Z,83.56
2018-01-07T12:35:06.088Z,83.28
2018-01-07T12:36:07.024Z,82.71
2018-01-07T12:38:00.420Z,83.28
2018-01-07T12:39:00.554Z,82.52
2018-01-07T12:40:51.918Z,83.28
2018-01-07T12:41:54.102Z,82.71
2018-01-07T12:43:47.447Z,83.00
2018-01-07T12:44:47.700Z,82.43
2018-01-07T12:46:40.209Z,83.18
2018-01-07T12:47:41.290Z,83.09
2018-01-07T12:49:34.773Z,83.28
2018-01-07T12:50:34.792Z,82.52
2018-01-07T12:52:27.442Z,82.90
2018-01-07T12:53:28.331Z,82.90
2018-01-07T12:55:21.887Z,82.90
2018-01-07T12:56:21.912Z,83.28
2018-01-07T12:58:13.073Z,82.62
2018-01-07T12:59:15.447Z,82.43
2018-01-07T13:01:08.100Z,82.14
2018-01-07T13:02:08.609Z,82.71
2018-01-07T13:04:02.568Z,82.14
2018-01-07T13:05:02.565Z,81.95
2018-01-07T13:06:54.515Z,82.33
2018-01-07T13:07:55.325Z,82.05
2018-01-07T13:09:48.798Z,81.86
2018-01-07T13:10:50.040Z,82.33
2018-01-07T13:12:42.347Z,82.43
2018-01-07T13:13:43.256Z,82.24
2018-01-07T13:15:36.824Z,82.14
2018-01-07T13:16:37.698Z,82.14
2018-01-07T13:18:30.334Z,82.05
2018-01-07T13:19:29.477Z,82.71
2018-01-07T13:21:22.718Z,82.33
2018-01-07T13:22:23.921Z,82.14
2018-01-07T13:24:16.546Z,82.24
2018-01-07T13:25:17.511Z,81.67
2018-01-07T13:27:11.156Z,82.24
2018-01-07T13:28:11.044Z,82.05
2018-01-07T13:30:03.693Z,82.14
2018-01-07T13:31:04.658Z,81.86
2018-01-07T13:32:56.708Z,82.14
2018-01-07T13:33:58.576Z,81.86
2018-01-07T13:35:50.716Z,81.48
2018-01-07T13:36:51.668Z,82.05
2018-01-07T13:38:45.240Z,81.67
2018-01-07T13:39:45.253Z,82.24
2018-01-07T13:41:38.403Z,81.86
2018-01-07T13:42:37.135Z,81.67
2018-01-07T13:44:32.285Z,81.86
2018-01-07T13:45:32.333Z,82.14
2018-01-07T13:47:24.996Z,81.86
2018-01-07T13:48:25.896Z,81.67
2018-01-07T13:50:16.586Z,81.67
2018-01-07T13:51:18.700Z,81.57
2018-01-07T13:53:10.189Z,82.24
2018-01-07T13:54:13.014Z,82.24
2018-01-07T13:56:05.996Z,82.05
2018-01-07T13:57:06.561Z,82.14
2018-01-07T13:58:59.273Z,82.24
2018-01-07T14:00:00.126Z,82.24
2018-01-07T14:01:53.678Z,82.14
2018-01-07T14:02:53.719Z,82.33
2018-01-07T14:04:46.366Z,81.72
2018-01-07T14:06:59.748Z,81.63
2018-01-07T14:08:00.767Z,81.53
2018-01-07T14:09:53.330Z,82.10
2018-01-07T14:10:54.203Z,81.63
2018-01-07T14:12:46.722Z,82.10
2018-01-07T14:13:47.756Z,82.10
2018-01-07T14:15:40.263Z,82.48
2018-01-07T14:16:41.462Z,82.10
2018-01-07T14:18:36.981Z,82.48
2018-01-07T14:19:33.290Z,82.29
2018-01-07T14:21:27.587Z,82.29
2018-01-07T14:22:25.786Z,82.57
2018-01-07T14:24:21.978Z,82.57
2018-01-07T14:25:21.971Z,82.20
2018-01-07T14:27:14.713Z,82.76
2018-01-07T14:28:14.681Z,83.24
2018-01-07T14:30:08.197Z,83.05
2018-01-07T14:31:09.088Z,82.86
2018-01-07T14:33:01.967Z,83.14
2018-01-07T14:35:15.382Z,82.76
2018-01-07T14:36:16.060Z,82.48
2018-01-07T14:39:39.652Z,82.39
2018-01-07T14:40:41.545Z,82.86
2018-01-07T14:42:33.377Z,82.39
2018-01-07T14:43:35.166Z,82.95
2018-01-07T14:45:27.814Z,83.05
2018-01-07T14:46:27.862Z,82.57
2018-01-07T14:48:20.882Z,82.57
2018-01-07T14:49:22.373Z,82.76
2018-01-07T14:51:14.843Z,82.95
2018-01-07T14:52:15.386Z,83.33
2018-01-07T14:54:10.826Z,82.95
2018-01-07T14:55:10.270Z,83.24
2018-01-07T14:57:01.902Z,82.76
2018-01-07T14:58:02.884Z,82.76
2018-01-07T14:59:56.472Z,82.57
2018-01-07T15:00:56.491Z,82.29
2018-01-07T15:02:48.922Z,82.57
2018-01-07T15:03:50.032Z,82.39
2018-01-07T15:05:43.510Z,82.67
2018-01-07T15:06:44.455Z,82.57
2018-01-07T15:08:36.141Z,82.95
2018-01-07T15:09:37.143Z,82.48
2018-01-07T15:11:30.504Z,82.76
2018-01-07T15:12:30.659Z,82.76
2018-01-07T15:14:23.337Z,82.67
2018-01-07T15:15:24.252Z,82.57
2018-01-07T15:17:16.160Z,82.95
2018-01-07T15:19:31.096Z,82.76
2018-01-07T15:20:31.384Z,82.67
2018-01-07T15:22:23.708Z,82.48
2018-01-07T15:24:35.248Z,82.29
2018-01-07T15:25:38.135Z,82.20
2018-01-07T15:27:32.292Z,82.48
2018-01-07T15:28:30.069Z,82.48
2018-01-07T15:30:27.196Z,82.86
2018-01-07T15:31:25.244Z,82.39
2018-01-07T15:33:17.924Z,82.48
2018-01-07T15:34:18.809Z,83.14
2018-01-07T15:36:12.198Z,83.05
2018-01-07T15:38:24.901Z,82.86
2018-01-07T15:39:25.822Z,82.86
2018-01-07T15:41:19.363Z,83.24
2018-01-07T15:42:19.319Z,82.57
2018-01-07T15:44:13.452Z,82.76
2018-01-07T15:46:26.330Z,83.43
2018-01-07T15:47:26.334Z,83.33
2018-01-07T15:49:20.451Z,82.86
2018-01-07T15:50:19.060Z,83.14
2018-01-07T15:52:11.577Z,83.14
2018-01-07T15:53:12.715Z,83.05
2018-01-07T15:55:08.598Z,83.33
2018-01-07T15:56:07.014Z,83.14
2018-01-07T15:57:57.655Z,83.33
2018-01-07T15:59:00.551Z,83.33
2018-01-07T16:00:53.176Z,83.14
2018-01-07T16:01:51.383Z,83.05
2018-01-07T16:03:47.689Z,83.24
2018-01-07T16:04:47.770Z,83.01
2018-01-07T16:06:40.317Z,83.33
2018-01-07T16:07:41.173Z,83.14
2018-01-07T16:09:33.647Z,83.29
2018-01-07T16:10:34.715Z,83.14
2018-01-07T16:12:28.486Z,83.10
2018-01-07T16:13:28.301Z,83.29
2018-01-07T16:15:20.952Z,83.05
2018-01-07T16:16:21.838Z,83.14
2018-01-07T16:18:15.403Z,83.39
2018-01-07T16:19:15.165Z,83.58
2018-01-07T16:21:07.370Z,83.10
2018-01-07T16:22:08.922Z,83.86
2018-01-07T16:24:02.379Z,83.01
2018-01-07T16:25:03.932Z,83.67
2018-01-07T16:26:55.153Z,83.95
2018-01-07T16:27:56.069Z,83.67
2018-01-07T16:29:48.696Z,83.48
2018-01-07T16:30:47.815Z,83.76
2018-01-07T16:32:42.250Z,83.48
2018-01-07T16:33:43.194Z,84.23
2018-01-07T16:35:37.365Z,83.76
2018-01-07T16:36:36.708Z,84.14
2018-01-07T16:38:30.293Z,84.52
2018-01-07T16:39:30.003Z,84.42
2018-01-07T16:41:22.861Z,84.23
2018-01-07T16:42:23.844Z,84.61
2018-01-07T16:44:16.745Z,84.61
2018-01-07T16:45:17.545Z,84.33
2018-01-07T16:47:11.050Z,84.42
2018-01-07T16:48:10.939Z,84.61
2018-01-07T16:50:09.966Z,84.90
2018-01-07T16:51:04.575Z,84.42
2018-01-07T16:52:59.080Z,84.52
2018-01-07T16:53:58.076Z,84.42
2018-01-07T16:55:50.977Z,84.71
2018-01-07T16:56:51.617Z,84.61
2018-01-07T16:58:43.918Z,84.52
2018-01-07T16:59:45.231Z,85.00
2018-01-07T17:01:37.956Z,84.61
2018-01-07T17:02:38.760Z,84.52
2018-01-07T17:04:31.096Z,84.61
2018-01-07T17:05:32.318Z,84.61
2018-01-07T17:07:26.765Z,84.61
2018-01-07T17:08:26.974Z,85.47
2018-01-07T17:10:20.039Z,85.38
2018-01-07T17:11:19.497Z,85.28
2018-01-07T17:13:15.739Z,85.28
2018-01-07T17:14:12.989Z,84.61
2018-01-07T17:16:05.681Z,85.19
2018-01-07T17:17:06.381Z,85.38
2018-01-07T17:18:57.929Z,84.81
2018-01-07T17:20:00.095Z,85.19
2018-01-07T17:21:52.691Z,85.28
2018-01-07T17:22:53.040Z,85.19
2018-01-07T17:24:46.353Z,85.38
2018-01-07T17:26:57.682Z,85.00
2018-01-07T17:28:00.578Z,85.28
2018-01-07T17:29:53.421Z,85.38
2018-01-07T17:30:54.310Z,85.28
2018-01-07T17:32:44.792Z,85.00
2018-01-07T17:33:47.098Z,85.19
2018-01-07T17:35:40.372Z,85.28
2018-01-07T17:36:40.591Z,85.19
2018-01-07T17:38:35.213Z,85.00
2018-01-07T17:39:34.884Z,84.61
2018-01-07T17:41:27.333Z,85.38
2018-01-07T17:42:26.592Z,85.19
2018-01-07T17:44:21.926Z,85.28
2018-01-07T17:45:21.917Z,84.81
2018-01-07T17:47:14.408Z,85.00
2018-01-07T17:48:15.489Z,85.28
2018-01-07T17:50:09.071Z,85.28
2018-01-07T17:51:06.414Z,85.19
2018-01-07T17:53:01.802Z,84.71
2018-01-07T17:54:02.632Z,85.38
2018-01-07T17:55:56.216Z,85.28
2018-01-07T17:56:56.131Z,85.38
2018-01-07T17:58:49.315Z,84.81
2018-01-07T17:59:49.736Z,84.52
2018-01-07T18:01:43.310Z,84.90
2018-01-07T18:02:43.297Z,84.81
2018-01-07T18:04:36.001Z,85.00
2018-01-07T18:05:36.831Z,84.90
2018-01-07T18:07:31.068Z,84.71
2018-01-07T18:08:30.385Z,84.61
2018-01-07T18:10:23.854Z,84.81
2018-01-07T18:11:24.956Z,84.81
2018-01-07T18:13:16.569Z,85.09
2018-01-07T18:14:17.630Z,84.52
2018-01-07T18:16:08.875Z,84.42
2018-01-07T18:17:11.073Z,84.61
2018-01-07T18:19:03.667Z,85.00
2018-01-07T18:20:04.601Z,84.52
2018-01-07T18:21:58.164Z,84.71
2018-01-07T18:22:58.153Z,84.81
2018-01-07T18:24:50.750Z,84.61
2018-01-07T18:25:51.688Z,84.81
2018-01-07T18:27:44.205Z,84.81
2018-01-07T18:28:45.371Z,84.71
2018-01-07T18:30:38.047Z,84.61
2018-01-07T18:31:38.961Z,84.71
2018-01-07T18:33:30.728Z,84.81
2018-01-07T18:34:32.363Z,84.05
2018-01-07T18:36:25.022Z,84.05
2018-01-07T18:37:25.949Z,83.95
2018-01-07T18:39:19.518Z,84.61
2018-01-07T18:40:19.460Z,84.81
2018-01-07T18:42:12.159Z,84.71
2018-01-07T18:43:13.070Z,84.90
2018-01-07T18:45:06.452Z,84.61
2018-01-07T18:46:07.235Z,84.23
2018-01-07T18:48:00.228Z,84.14
2018-01-07T18:49:01.060Z,84.52
2018-01-07T18:50:54.375Z,84.61
2018-01-07T18:51:52.981Z,84.33
2018-01-07T18:53:47.239Z,84.81
2018-01-07T18:54:47.301Z,84.14
2018-01-07T18:56:39.924Z,84.14
2018-01-07T18:58:54.878Z,84.71
2018-01-07T18:59:54.285Z,84.52
2018-01-07T19:01:47.765Z,84.71
2018-01-07T19:04:01.079Z,84.61